Time;durP1;ratioP1;P1;durP2;ratioP2;P2;SDS_P1;SDS_P2;PMS_P1;PMS_P2;Temp;Humidity;BMP_temperature;BMP_pressure;BME280_temperature;BME280_humidity;BME280_pressure;Samples;Min_cycle;Max_cycle;Signal;HPM_P1;HPM_P2
2022/12/08 00:01:14;;;;;;;7.60;2.33;;;2.90;99.90;;;;;;7368368;19;20033;-47
2022/12/08 00:03:41;;;;;;;7.93;2.25;;;2.90;99.90;;;;;;7368848;19;20061;-45
2022/12/08 00:09:23;;;;;;;7.15;1.80;;;2.90;99.90;;;;;;7370771;19;20018;-48
2022/12/08 00:11:50;;;;;;;4.47;1.60;;;2.90;99.90;;;;;;7371643;19;20019;-46
2022/12/08 00:14:18;;;;;;;3.20;1.67;;;2.80;99.90;;;;;;7367739;19;20588;-48
2022/12/08 00:16:45;;;;;;;5.18;1.50;;;2.80;99.90;;;;;;7370579;19;20029;-46
2022/12/08 00:19:11;;;;;;;4.78;1.70;;;2.70;99.90;;;;;;7370195;19;20022;-46
2022/12/08 00:21:37;;;;;;;3.33;1.85;;;2.70;99.90;;;;;;7367857;19;20035;-43
2022/12/08 00:24:04;;;;;;;4.72;2.65;;;2.60;99.90;;;;;;7367935;19;20029;-44
2022/12/08 00:26:30;;;;;;;5.90;2.10;;;2.60;99.90;;;;;;7373423;19;20569;-45
2022/12/08 00:28:56;;;;;;;5.75;1.65;;;2.70;99.90;;;;;;7379546;19;20014;-46
2022/12/08 00:31:27;;;;;;;7.15;1.60;;;2.60;99.90;;;;;;7369769;19;20030;-46
2022/12/08 00:33:53;;;;;;;6.35;1.48;;;2.60;99.90;;;;;;7374730;19;20049;-43
2022/12/08 00:36:19;;;;;;;5.97;1.50;;;2.50;99.90;;;;;;7372233;19;20023;-44
2022/12/08 00:38:47;;;;;;;4.93;1.45;;;2.50;99.90;;;;;;7374250;19;20478;-45
2022/12/08 00:42:10;;;;;;;4.13;2.00;;;2.50;99.90;;;;;;7372599;19;20414;-47
2022/12/08 00:44:10;;;;;;;5.72;1.42;;;2.50;99.90;;;;;;7376060;19;20397;-45
2022/12/08 00:46:36;;;;;;;4.65;2.10;;;2.50;99.90;;;;;;7376143;19;20664;-47
2022/12/08 00:49:03;;;;;;;6.20;2.17;;;2.50;99.90;;;;;;7374359;19;20018;-47
2022/12/08 00:51:29;;;;;;;2.92;1.42;;;2.50;99.90;;;;;;7374594;19;20034;-45
2022/12/08 00:53:58;;;;;;;5.32;1.58;;;2.40;99.90;;;;;;7377120;19;20018;-47
2022/12/08 00:56:25;;;;;;;5.55;1.92;;;2.40;99.90;;;;;;7374657;19;20375;-46
2022/12/08 00:58:52;;;;;;;3.67;1.60;;;2.30;99.90;;;;;;7376491;19;20589;-47
2022/12/08 01:01:18;;;;;;;7.88;1.80;;;2.30;99.90;;;;;;7374865;19;20022;-45
2022/12/08 01:03:45;;;;;;;5.95;1.60;;;2.20;99.90;;;;;;7374882;19;20018;-45
2022/12/08 01:06:11;;;;;;;4.35;1.77;;;2.20;99.90;;;;;;7373020;19;20398;-46
2022/12/08 01:08:39;;;;;;;4.63;1.83;;;2.20;99.90;;;;;;7371122;19;20028;-45
2022/12/08 01:11:09;;;;;;;8.88;2.00;;;2.20;99.90;;;;;;7370829;19;20017;-45
2022/12/08 01:13:35;;;;;;;8.30;2.22;;;2.10;99.90;;;;;;7375764;19;20373;-43
2022/12/08 01:16:02;;;;;;;5.75;1.80;;;2.10;99.90;;;;;;7372252;19;20022;-44
2022/12/08 01:18:28;;;;;;;7.13;2.10;;;2.10;99.90;;;;;;7377026;19;20592;-46
2022/12/08 01:21:00;;;;;;;4.93;2.00;;;2.10;99.90;;;;;;7377252;19;20056;-44
2022/12/08 01:23:27;;;;;;;5.38;2.05;;;2.10;99.90;;;;;;7376075;19;20490;-46
2022/12/08 01:25:53;;;;;;;7.13;1.90;;;2.10;99.90;;;;;;7373139;19;20569;-44
2022/12/08 01:28:19;;;;;;;4.03;2.10;;;2.10;99.90;;;;;;7369965;19;20021;-46
2022/12/08 01:30:46;;;;;;;4.60;2.15;;;2.10;99.90;;;;;;7373754;19;20368;-47
2022/12/08 01:33:13;;;;;;;4.53;1.92;;;2.10;99.90;;;;;;7374199;19;20038;-48
2022/12/08 01:35:40;;;;;;;7.15;2.08;;;2.10;99.90;;;;;;7369932;19;20026;-47
2022/12/08 01:38:16;;;;;;;6.25;2.40;;;2.10;99.90;;;;;;7370908;19;20473;-46
2022/12/08 01:40:48;;;;;;;6.57;2.25;;;2.20;99.90;;;;;;7373043;19;20014;-47
2022/12/08 01:43:19;;;;;;;7.10;2.60;;;2.20;99.90;;;;;;7373239;19;20041;-44
2022/12/08 01:45:52;;;;;;;7.70;2.63;;;2.30;99.90;;;;;;7375429;19;20014;-45
2022/12/08 01:48:26;;;;;;;7.78;2.70;;;2.30;99.90;;;;;;7369155;19;20014;-44
2022/12/08 01:50:54;;;;;;;5.65;2.88;;;2.40;99.90;;;;;;7373394;19;20640;-45
2022/12/08 01:53:25;;;;;;;4.93;2.47;;;2.30;99.90;;;;;;7370325;19;20042;-44
2022/12/08 01:55:59;;;;;;;6.32;2.60;;;2.40;99.90;;;;;;7372897;19;20045;-45
2022/12/08 01:58:35;;;;;;;7.38;2.78;;;2.40;99.90;;;;;;7368317;19;20022;-45
2022/12/08 02:01:04;;;;;;;7.80;2.28;;;2.50;99.90;;;;;;7372613;19;20018;-45
2022/12/08 02:03:46;;;;;;;4.13;2.13;;;2.50;99.90;;;;;;7372933;19;20485;-45
2022/12/08 02:06:13;;;;;;;;;;;2.60;99.90;;;;;;7374378;19;20398;-44
2022/12/08 02:08:43;;;;;;;4.40;2.05;;;2.60;99.90;;;;;;7374308;19;19922;-47
2022/12/08 02:11:10;;;;;;;3.60;2.05;;;2.60;99.90;;;;;;7363751;19;20071;-45
2022/12/08 02:13:38;;;;;;;5.45;1.73;;;2.60;99.90;;;;;;7372523;19;20457;-43
2022/12/08 02:16:16;;;;;;;6.80;2.25;;;2.70;99.90;;;;;;7370600;19;20574;-44
2022/12/08 02:18:52;;;;;;;5.25;1.90;;;2.70;99.90;;;;;;7370761;19;20411;-46
2022/12/08 02:21:34;;;;;;;5.72;2.30;;;2.70;99.90;;;;;;7370558;19;20484;-44
2022/12/08 02:24:26;;;;;;;6.30;1.95;;;2.70;99.90;;;;;;7374118;19;20030;-44
2022/12/08 02:27:10;;;;;;;5.32;2.22;;;2.70;99.90;;;;;;7374171;19;20043;-44
2022/12/08 02:30:08;;;;;;;2.80;1.90;;;2.70;99.90;;;;;;7377618;19;20369;-44
2022/12/08 02:32:54;;;;;;;5.88;2.20;;;2.70;99.90;;;;;;7374457;19;20022;-43
2022/12/08 02:35:49;;;;;;;3.10;2.05;;;2.70;99.90;;;;;;7372334;19;20025;-47
2022/12/08 02:38:46;;;;;;;3.95;1.90;;;2.70;99.90;;;;;;7370903;19;20105;-44
2022/12/08 02:41:29;;;;;;;5.75;2.28;;;2.60;99.90;;;;;;7370325;19;20061;-44
2022/12/08 02:44:20;;;;;;;3.92;2.15;;;2.60;99.90;;;;;;7372117;19;20117;-44
2022/12/08 02:47:05;;;;;;;6.80;2.28;;;2.60;99.90;;;;;;7370274;19;20375;-44
2022/12/08 02:49:34;;;;;;;4.25;2.00;;;2.60;99.90;;;;;;7372134;19;20086;-45
2022/12/08 02:52:24;;;;;;;5.95;1.85;;;2.60;99.90;;;;;;7374688;19;20098;-43
2022/12/08 02:55:07;;;;;;;3.50;1.70;;;2.60;99.90;;;;;;7371309;19;20039;-46
2022/12/08 02:57:55;;;;;;;5.85;1.85;;;2.60;99.90;;;;;;7368945;19;20025;-45
2022/12/08 03:00:24;;;;;;;2.22;1.52;;;2.60;99.90;;;;;;7370785;19;20014;-45
2022/12/08 03:03:18;;;;;;;7.47;2.00;;;2.70;99.90;;;;;;7370699;19;20494;-45
2022/12/08 03:06:19;;;;;;;6.05;2.70;;;2.80;99.90;;;;;;7365745;19;20063;-47
2022/12/08 03:08:57;;;;;;;8.57;2.00;;;2.80;99.90;;;;;;7370808;19;20494;-46
2022/12/08 03:11:41;;;;;;;3.75;1.77;;;2.80;99.90;;;;;;7371196;19;20048;-48
2022/12/08 03:14:11;;;;;;;7.43;2.45;;;2.80;99.90;;;;;;7372799;19;20022;-47
2022/12/08 03:16:42;;;;;;;5.07;1.90;;;2.80;99.90;;;;;;7366247;19;20102;-44
2022/12/08 03:19:11;;;;;;;7.05;2.83;;;2.90;99.90;;;;;;7370841;19;20090;-48
2022/12/08 03:21:42;;;;;;;5.47;2.10;;;2.90;99.90;;;;;;7371370;19;20387;-46
2022/12/08 03:24:10;;;;;;;3.03;1.98;;;2.90;99.90;;;;;;7372619;19;20510;-45
2022/12/08 03:26:55;;;;;;;4.00;2.30;;;3.00;99.90;;;;;;7361147;19;20522;-45
2022/12/08 03:29:22;;;;;;;5.47;2.10;;;3.00;99.90;;;;;;7369104;19;20014;-43
2022/12/08 03:31:53;;;;;;;3.03;2.15;;;3.00;99.90;;;;;;7373161;19;20402;-45
2022/12/08 03:34:22;;;;;;;4.82;2.40;;;3.10;99.90;;;;;;7370270;19;20561;-47
2022/12/08 03:36:49;;;;;;;4.60;2.80;;;3.00;99.90;;;;;;7371107;19;20010;-45
2022/12/08 03:39:16;;;;;;;6.38;2.95;;;3.00;99.90;;;;;;7371827;19;20501;-48
2022/12/08 03:41:42;;;;;;;5.32;2.63;;;3.00;99.90;;;;;;7371062;19;20011;-46
2022/12/08 03:44:09;;;;;;;6.30;2.72;;;3.00;99.90;;;;;;7370231;19;20066;-44
2022/12/08 03:46:35;;;;;;;4.95;2.78;;;3.10;99.90;;;;;;7370600;19;20349;-46
2022/12/08 03:49:02;;;;;;;4.20;2.10;;;3.10;99.90;;;;;;7367798;19;20032;-45
2022/12/08 03:51:28;;;;;;;5.43;2.40;;;3.10;99.90;;;;;;7368948;19;20031;-47
2022/12/08 03:53:54;;;;;;;5.32;1.73;;;3.10;99.90;;;;;;7370515;19;20603;-44
2022/12/08 03:56:31;;;;;;;2.22;1.60;;;3.00;99.90;;;;;;7365685;19;20445;-44
2022/12/08 03:58:58;;;;;;;4.25;1.70;;;3.00;99.90;;;;;;7373916;19;20033;-47
2022/12/08 04:01:26;;;;;;;3.17;1.33;;;3.00;99.90;;;;;;7373701;19;20064;-50
2022/12/08 04:03:52;;;;;;;4.43;1.30;;;3.00;99.90;;;;;;7379061;19;20370;-49
2022/12/08 04:06:21;;;;;;;1.98;1.20;;;3.00;99.90;;;;;;7377288;19;20014;-45
2022/12/08 04:08:49;;;;;;;1.90;1.00;;;2.90;99.90;;;;;;7377247;19;20449;-45
2022/12/08 04:11:16;;;;;;;2.33;1.10;;;2.90;99.90;;;;;;7380211;19;20097;-45
2022/12/08 04:13:51;;;;;;;2.15;1.10;;;2.90;99.90;;;;;;7378902;19;20524;-44
2022/12/08 04:16:27;;;;;;;1.67;1.13;;;2.80;99.90;;;;;;7374335;19;20533;-46
2022/12/08 04:18:53;;;;;;;4.93;1.40;;;2.80;99.90;;;;;;7374212;19;20026;-42
2022/12/08 04:21:21;;;;;;;3.83;2.17;;;2.80;99.90;;;;;;7380079;19;20086;-43
2022/12/08 04:23:48;;;;;;;2.70;1.98;;;2.80;99.90;;;;;;7376623;19;20029;-44
2022/12/08 04:26:15;;;;;;;4.45;2.22;;;2.80;99.90;;;;;;7375349;19;20026;-43
2022/12/08 04:28:42;;;;;;;6.07;2.90;;;2.80;99.90;;;;;;7375860;19;20471;-48
2022/12/08 04:31:09;;;;;;;6.07;3.20;;;2.90;99.90;;;;;;7378067;19;20022;-42
2022/12/08 04:33:35;;;;;;;6.78;3.33;;;2.90;99.90;;;;;;7378930;19;20022;-42
2022/12/08 04:36:03;;;;;;;8.93;4.32;;;2.90;99.90;;;;;;7372564;19;20026;-44
2022/12/08 04:38:30;;;;;;;8.45;4.07;;;2.90;99.90;;;;;;7370028;19;20022;-46
2022/12/08 04:40:58;;;;;;;13.45;6.05;;;2.90;99.90;;;;;;7376038;19;20413;-43
2022/12/08 04:43:27;;;;;;;8.43;5.03;;;3.00;99.90;;;;;;7374019;19;20010;-44
2022/12/08 04:45:53;;;;;;;8.90;5.88;;;3.00;99.90;;;;;;7373216;19;20380;-42
2022/12/08 04:48:19;;;;;;;10.32;5.78;;;2.90;99.90;;;;;;7377725;19;20023;-44
2022/12/08 04:50:46;;;;;;;10.63;5.55;;;3.00;99.90;;;;;;7378269;19;20419;-42
2022/12/08 04:53:13;;;;;;;7.50;5.32;;;3.00;99.90;;;;;;7379337;19;20752;-45
2022/12/08 04:55:44;;;;;;;11.57;5.40;;;3.00;99.90;;;;;;7375523;19;20022;-46
2022/12/08 04:58:16;;;;;;;12.48;5.82;;;2.90;99.90;;;;;;7376386;19;20022;-47
2022/12/08 05:00:43;;;;;;;9.68;5.70;;;3.00;99.90;;;;;;7374515;19;20026;-47
2022/12/08 05:03:10;;;;;;;9.38;5.45;;;2.90;99.90;;;;;;7373428;19;20055;-44
2022/12/08 05:05:36;;;;;;;9.20;5.50;;;2.90;99.90;;;;;;7377162;19;20482;-43
2022/12/08 05:08:03;;;;;;;9.98;5.38;;;2.90;99.90;;;;;;7374362;19;20375;-46
2022/12/08 05:10:30;;;;;;;8.93;5.07;;;2.90;99.90;;;;;;7373220;19;20380;-42
2022/12/08 05:12:58;;;;;;;8.95;5.13;;;2.90;99.90;;;;;;7378321;19;20022;-44
2022/12/08 05:15:24;;;;;;;11.27;5.30;;;2.90;99.90;;;;;;7376571;19;20021;-44
2022/12/08 05:17:51;;;;;;;8.63;4.88;;;2.90;99.90;;;;;;7373136;19;20014;-42
2022/12/08 05:20:17;;;;;;;9.70;5.10;;;2.90;99.90;;;;;;7372775;19;20022;-44
2022/12/08 05:22:47;;;;;;;11.52;5.05;;;2.90;99.90;;;;;;7370141;19;20018;-43
2022/12/08 05:25:13;;;;;;;9.05;4.88;;;2.90;99.90;;;;;;7374437;19;20846;-45
2022/12/08 05:27:40;;;;;;;8.25;4.50;;;2.90;99.90;;;;;;7367810;19;20038;-43
2022/12/08 05:30:07;;;;;;;10.52;4.40;;;2.90;99.90;;;;;;7367872;19;20042;-45
2022/12/08 05:32:33;;;;;;;8.27;3.97;;;2.90;99.90;;;;;;7375675;19;20018;-43
2022/12/08 05:35:00;;;;;;;8.05;4.95;;;2.90;99.90;;;;;;7374243;19;20107;-43
2022/12/08 05:37:28;;;;;;;7.25;3.50;;;2.90;99.90;;;;;;7370853;19;20014;-45
2022/12/08 05:39:55;;;;;;;8.35;3.97;;;2.90;99.90;;;;;;7375866;19;20019;-44
2022/12/08 05:42:24;;;;;;;7.95;3.90;;;2.90;99.90;;;;;;7370780;19;20014;-43
2022/12/08 05:44:53;;;;;;;7.07;3.47;;;2.90;99.90;;;;;;7374625;19;20024;-44
2022/12/08 05:47:19;;;;;;;9.50;4.10;;;2.90;99.90;;;;;;7374710;19;20019;-44
2022/12/08 05:49:46;;;;;;;7.07;3.10;;;3.00;99.90;;;;;;7369493;19;20035;-43
2022/12/08 05:52:15;;;;;;;6.63;3.53;;;2.90;99.90;;;;;;7371839;19;20058;-47
2022/12/08 05:54:42;;;;;;;6.38;3.25;;;3.00;99.90;;;;;;7376389;19;20395;-43
2022/12/08 05:57:08;;;;;;;6.47;3.30;;;2.90;99.90;;;;;;7375233;19;20458;-44
2022/12/08 05:59:34;;;;;;;5.15;2.90;;;2.90;99.90;;;;;;7373723;19;20021;-44
2022/12/08 06:02:01;;;;;;;4.57;2.50;;;2.90;99.90;;;;;;7373195;19;20040;-48
2022/12/08 06:04:27;;;;;;;5.25;2.53;;;2.90;99.90;;;;;;7374011;19;20022;-48
2022/12/08 06:06:54;;;;;;;7.65;3.20;;;2.90;99.90;;;;;;7373629;19;20375;-46
2022/12/08 06:09:20;;;;;;;6.18;3.00;;;2.90;99.90;;;;;;7372744;19;20046;-46
2022/12/08 06:11:47;;;;;;;7.72;2.75;;;3.00;99.90;;;;;;7370403;19;20014;-46
2022/12/08 06:14:13;;;;;;;5.78;2.85;;;3.00;99.90;;;;;;7371474;19;20018;-47
2022/12/08 06:16:40;;;;;;;5.03;2.22;;;2.90;99.90;;;;;;7370669;19;20500;-45
2022/12/08 06:19:06;;;;;;;5.82;2.28;;;3.00;99.90;;;;;;7372452;19;20130;-47
2022/12/08 06:21:33;;;;;;;6.13;2.55;;;2.90;99.90;;;;;;7369937;19;20026;-47
2022/12/08 06:23:59;;;;;;;7.78;2.25;;;2.90;99.90;;;;;;7373864;19;20026;-47
2022/12/08 06:26:26;;;;;;;4.68;2.53;;;2.90;99.90;;;;;;7366028;19;20026;-45
2022/12/08 06:28:52;;;;;;;4.38;2.58;;;3.00;99.90;;;;;;7369504;19;20038;-44
2022/12/08 06:31:22;;;;;;;6.47;2.75;;;2.90;99.90;;;;;;7370411;19;20019;-44
2022/12/08 06:33:48;;;;;;;9.10;3.60;;;2.90;99.90;;;;;;7370064;19;20050;-48
2022/12/08 06:36:17;;;;;;;6.25;2.63;;;2.90;99.90;;;;;;7370607;19;20857;-47
2022/12/08 06:38:45;;;;;;;6.72;3.08;;;2.90;99.90;;;;;;7369297;19;20854;-44
2022/12/08 06:41:13;;;;;;;6.32;3.15;;;2.90;99.90;;;;;;7367804;19;20029;-43
2022/12/08 06:43:40;;;;;;;4.05;2.45;;;2.80;99.90;;;;;;7371684;19;20010;-44
2022/12/08 06:46:09;;;;;;;6.18;2.88;;;2.80;99.90;;;;;;7370520;19;20078;-45
2022/12/08 06:48:36;;;;;;;5.80;2.83;;;2.80;99.90;;;;;;7373128;19;20105;-47
2022/12/08 06:51:13;;;;;;;4.22;2.70;;;2.80;99.90;;;;;;7364821;19;20022;-43
2022/12/08 06:53:44;;;;;;;5.32;3.17;;;2.80;99.90;;;;;;7369318;19;20022;-45
2022/12/08 06:56:18;;;;;;;8.60;5.00;;;2.80;99.90;;;;;;7370486;19;20022;-42
2022/12/08 06:58:45;;;;;;;8.25;3.65;;;2.90;99.90;;;;;;7372633;19;20081;-44
2022/12/08 07:01:12;;;;;;;7.47;2.42;;;2.90;99.90;;;;;;7371485;19;20035;-47
2022/12/08 07:03:40;;;;;;;4.97;2.50;;;2.90;99.90;;;;;;7366884;19;20018;-44
2022/12/08 07:06:07;;;;;;;5.28;2.42;;;2.90;99.90;;;;;;7365035;19;20042;-45
2022/12/08 07:08:33;;;;;;;4.57;2.60;;;2.90;99.90;;;;;;7367607;19;20050;-44
2022/12/08 07:11:06;;;;;;;5.80;2.30;;;2.90;99.90;;;;;;7370627;19;20020;-45
2022/12/08 07:13:32;;;;;;;5.47;2.20;;;2.90;99.90;;;;;;7368749;19;20553;-45
2022/12/08 07:15:59;;;;;;;4.82;2.60;;;3.00;99.90;;;;;;7367421;19;20042;-45
2022/12/08 07:18:25;;;;;;;3.65;2.35;;;3.00;99.90;;;;;;7362999;19;20018;-45
2022/12/08 07:20:51;;;;;;;5.50;2.53;;;2.90;99.90;;;;;;7363064;19;20021;-45
2022/12/08 07:23:18;;;;;;;5.50;2.72;;;2.90;99.90;;;;;;7364518;19;20025;-43
2022/12/08 07:25:44;;;;;;;6.40;2.35;;;2.90;99.90;;;;;;7367929;19;20539;-47
2022/12/08 07:28:11;;;;;;;4.53;2.20;;;2.90;99.90;;;;;;7364861;19;20592;-44
2022/12/08 07:30:42;;;;;;;1.92;1.20;;;2.90;99.90;;;;;;7363983;19;20027;-44
2022/12/08 07:33:08;;;;;;;4.13;1.48;;;2.90;99.90;;;;;;7363861;19;20022;-45
2022/12/08 07:35:35;;;;;;;3.92;1.55;;;2.90;99.90;;;;;;7364625;19;20102;-45
2022/12/08 07:38:02;;;;;;;1.65;0.93;;;2.90;99.90;;;;;;7364672;19;20486;-46
2022/12/08 07:40:38;;;;;;;1.77;1.00;;;2.80;99.90;;;;;;7360940;19;20022;-45
2022/12/08 07:43:05;;;;;;;4.40;1.52;;;2.80;99.90;;;;;;7364711;19;20029;-45
2022/12/08 07:45:31;;;;;;;20.25;12.55;;;2.70;99.90;;;;;;7360109;19;20019;-48
2022/12/08 07:47:58;;;;;;;3.50;1.65;;;2.70;99.90;;;;;;7364262;19;20032;-45
2022/12/08 07:50:24;;;;;;;2.70;1.73;;;2.70;99.90;;;;;;7362367;19;21016;-44
2022/12/08 07:52:52;;;;;;;2.33;1.73;;;2.70;99.90;;;;;;7365534;19;20019;-46
2022/12/08 07:55:18;;;;;;;3.70;2.15;;;2.60;99.90;;;;;;7366070;19;20027;-48
2022/12/08 07:57:44;;;;;;;3.30;2.63;;;2.60;99.90;;;;;;7368620;19;20014;-44
2022/12/08 08:00:11;;;;;;;3.58;2.53;;;2.60;99.90;;;;;;7362329;19;20025;-45
2022/12/08 08:02:41;;;;;;;5.03;2.78;;;2.60;99.90;;;;;;7361522;19;20018;-46
2022/12/08 08:05:13;;;;;;;7.00;3.67;;;2.60;99.90;;;;;;7361219;19;20026;-45
2022/12/08 08:07:42;;;;;;;9.45;4.05;;;2.50;99.90;;;;;;7365698;19;20060;-46
2022/12/08 08:10:09;;;;;;;6.45;3.38;;;2.60;99.90;;;;;;7360728;19;20014;-47
2022/12/08 08:12:37;;;;;;;6.82;4.10;;;2.60;99.90;;;;;;7367785;19;20026;-51
2022/12/08 08:15:06;;;;;;;9.45;4.57;;;2.60;99.90;;;;;;7364879;19;20034;-46
2022/12/08 08:17:34;;;;;;;9.18;4.55;;;2.60;99.90;;;;;;7365352;19;20018;-46
2022/12/08 08:20:00;;;;;;;8.68;4.32;;;2.60;99.90;;;;;;7363643;19;20383;-45
2022/12/08 08:22:27;;;;;;;6.25;3.85;;;2.60;99.90;;;;;;7361449;19;20019;-45
2022/12/08 08:24:53;;;;;;;8.30;4.40;;;2.60;99.90;;;;;;7364727;19;20037;-46
2022/12/08 08:27:20;;;;;;;8.45;3.60;;;2.60;99.90;;;;;;7363170;19;20481;-44
2022/12/08 08:29:46;;;;;;;7.22;3.55;;;2.60;99.90;;;;;;7363341;19;20354;-46
2022/12/08 08:32:12;;;;;;;4.25;2.45;;;2.60;99.90;;;;;;7363046;19;20018;-47
2022/12/08 08:34:40;;;;;;;8.48;3.05;;;2.60;99.90;;;;;;7366303;19;20038;-45
2022/12/08 08:37:06;;;;;;;8.02;3.22;;;2.70;99.90;;;;;;7363951;19;20482;-46
2022/12/08 08:39:32;;;;;;;5.25;2.47;;;2.70;99.90;;;;;;7365053;19;20018;-47
2022/12/08 08:41:58;;;;;;;5.15;2.83;;;2.60;99.90;;;;;;7360065;19;20018;-46
2022/12/08 08:44:25;;;;;;;4.95;2.40;;;2.70;99.90;;;;;;7363875;19;20058;-45
2022/12/08 08:46:52;;;;;;;5.78;2.17;;;2.70;99.90;;;;;;7371658;19;20025;-45
2022/12/08 08:49:20;;;;;;;3.97;1.70;;;2.70;99.90;;;;;;7374677;19;20383;-48
2022/12/08 08:51:47;;;;;;;3.38;1.73;;;2.70;99.90;;;;;;7368203;19;20482;-43
2022/12/08 08:54:13;;;;;;;4.53;1.83;;;2.80;99.90;;;;;;7373331;19;20025;-44
2022/12/08 08:56:40;;;;;;;6.20;1.75;;;2.80;99.90;;;;;;7368489;19;20035;-45
2022/12/08 08:59:06;;;;;;;3.63;1.98;;;2.80;99.90;;;;;;7370887;19;20036;-45
2022/12/08 09:01:34;;;;;;;8.48;1.55;;;2.80;99.90;;;;;;7370361;19;20019;-49
2022/12/08 09:04:00;;;;;;;2.67;1.20;;;2.80;99.90;;;;;;7369114;19;20058;-49
2022/12/08 09:06:27;;;;;;;4.15;1.25;;;2.80;99.90;;;;;;7364910;19;20419;-44
2022/12/08 09:08:53;;;;;;;4.85;1.50;;;2.80;99.90;;;;;;7367125;19;20018;-45
2022/12/08 09:11:22;;;;;;;2.28;1.30;;;2.80;99.90;;;;;;7371366;19;20529;-44
2022/12/08 09:13:49;;;;;;;2.75;1.08;;;2.90;99.90;;;;;;7371474;19;20038;-44
2022/12/08 09:16:17;;;;;;;6.40;1.10;;;2.90;99.90;;;;;;7369178;19;20014;-45
2022/12/08 09:18:43;;;;;;;6.40;1.63;;;2.90;99.90;;;;;;7367871;19;20024;-45
2022/12/08 09:21:21;;;;;;;3.83;1.33;;;3.00;99.90;;;;;;7367729;19;20014;-46
2022/12/08 09:23:55;;;;;;;6.78;1.15;;;3.00;99.90;;;;;;7370759;19;20011;-45
2022/12/08 09:26:22;;;;;;;4.57;1.27;;;3.10;99.90;;;;;;7363126;19;20046;-48
2022/12/08 09:28:51;;;;;;;2.28;1.25;;;3.10;99.90;;;;;;7361301;19;20026;-46
2022/12/08 09:31:19;;;;;;;5.00;1.00;;;3.10;99.90;;;;;;7365236;19;20475;-45
2022/12/08 09:33:46;;;;;;;5.65;1.65;;;3.10;99.90;;;;;;7359547;19;20632;-45
2022/12/08 09:36:12;;;;;;;6.20;1.45;;;3.10;99.90;;;;;;7366878;19;20834;-45
2022/12/08 09:38:40;;;;;;;3.83;1.40;;;3.20;99.90;;;;;;7365423;19;20025;-44
2022/12/08 09:41:31;;;;;;;2.17;0.80;;;3.10;99.90;;;;;;7366100;19;20339;-45
2022/12/08 09:44:40;;;;;;;2.77;1.20;;;3.10;99.90;;;;;;7369603;19;20045;-45
2022/12/08 09:47:36;;;;;;;3.80;1.20;;;3.10;99.90;;;;;;7368116;19;20015;-48
2022/12/08 09:50:17;;;;;;;2.05;1.00;;;3.10;99.90;;;;;;7371181;19;20015;-46
2022/12/08 09:52:53;;;;;;;1.35;1.00;;;3.10;99.90;;;;;;7365662;19;20045;-46
2022/12/08 09:55:39;;;;;;;4.20;1.08;;;3.00;99.90;;;;;;7367085;19;20050;-44
2022/12/08 09:58:15;;;;;;;3.33;1.60;;;3.00;99.90;;;;;;7363493;19;20046;-46
2022/12/08 10:00:41;;;;;;;3.80;1.15;;;3.00;99.90;;;;;;7368703;19;20010;-44
2022/12/08 10:03:11;;;;;;;3.03;1.60;;;3.00;99.90;;;;;;7364162;19;20490;-45
2022/12/08 10:06:04;;;;;;;4.65;2.00;;;3.00;99.90;;;;;;7367311;19;20019;-46
2022/12/08 10:08:45;;;;;;;3.58;1.80;;;3.00;99.90;;;;;;7365103;19;20026;-44
2022/12/08 10:11:24;;;;;;;4.70;1.52;;;2.90;99.90;;;;;;7366811;19;20576;-44
2022/12/08 10:13:58;;;;;;;6.68;1.80;;;2.90;99.90;;;;;;7366566;19;20105;-46
2022/12/08 10:16:44;;;;;;;2.25;1.20;;;2.90;99.90;;;;;;7365363;19;20846;-45
2022/12/08 10:19:22;;;;;;;3.67;1.80;;;3.00;99.90;;;;;;7371444;19;20032;-46
2022/12/08 10:21:50;;;;;;;5.45;2.28;;;3.00;99.90;;;;;;7366656;19;20489;-48
2022/12/08 10:24:39;;;;;;;4.78;2.00;;;3.00;99.90;;;;;;7369876;19;20018;-47
2022/12/08 10:27:10;;;;;;;5.80;1.90;;;3.00;99.90;;;;;;7366628;19;20022;-42
2022/12/08 10:29:40;;;;;;;4.93;2.40;;;3.00;99.90;;;;;;7367418;19;20086;-44
2022/12/08 10:32:17;;;;;;;3.85;2.50;;;3.00;99.90;;;;;;7366562;19;20061;-47
2022/12/08 10:35:04;;;;;;;6.18;2.33;;;2.90;99.90;;;;;;7363727;19;20014;-43
2022/12/08 10:37:30;;;;;;;6.55;2.70;;;3.00;99.90;;;;;;7366031;19;20022;-43
2022/12/08 10:40:26;;;;;;;3.92;2.58;;;3.20;99.90;;;;;;7364358;19;21159;-45
2022/12/08 10:42:56;;;;;;;6.13;2.42;;;3.20;99.90;;;;;;7359955;19;20478;-46
2022/12/08 10:45:32;;;;;;;6.38;3.10;;;3.30;99.90;;;;;;7367930;19;20022;-43
2022/12/08 10:48:19;;;;;;;6.00;3.13;;;3.30;99.90;;;;;;7364562;19;20022;-44
2022/12/08 10:50:52;;;;;;;6.10;3.05;;;3.30;99.90;;;;;;7365685;19;20150;-44
2022/12/08 10:53:33;;;;;;;8.18;3.30;;;3.30;99.90;;;;;;7370016;19;20026;-47
2022/12/08 10:56:02;;;;;;;8.02;3.63;;;3.30;99.90;;;;;;7365911;19;20387;-44
2022/12/08 10:58:41;;;;;;;7.97;3.28;;;3.20;99.90;;;;;;7365817;19;20031;-43
2022/12/08 11:01:10;;;;;;;7.10;3.38;;;3.20;99.90;;;;;;7360894;19;20469;-44
2022/12/08 11:03:50;;;;;;;5.70;3.33;;;3.20;99.90;;;;;;7364094;19;20372;-46
2022/12/08 11:06:22;;;;;;;6.13;3.63;;;3.20;99.90;;;;;;7367637;19;20366;-44
2022/12/08 11:08:52;;;;;;;6.10;3.60;;;3.20;99.90;;;;;;7364965;19;20025;-44
2022/12/08 11:11:20;;;;;;;8.10;4.00;;;3.20;99.90;;;;;;7360286;19;20014;-48
2022/12/08 11:13:49;;;;;;;4.80;3.35;;;3.20;99.90;;;;;;7358799;19;20023;-47
2022/12/08 11:16:17;;;;;;;7.78;3.35;;;3.20;99.90;;;;;;7361720;19;20022;-44
2022/12/08 11:18:53;;;;;;;6.78;3.40;;;3.10;99.90;;;;;;7364572;19;20046;-43
2022/12/08 11:21:27;;;;;;;5.13;3.22;;;3.10;99.90;;;;;;7358590;19;20018;-44
2022/12/08 11:23:53;;;;;;;6.93;3.28;;;3.10;99.90;;;;;;7364056;19;20467;-47
2022/12/08 11:26:29;;;;;;;4.78;3.50;;;3.10;99.90;;;;;;7359741;19;20052;-44
2022/12/08 11:28:57;;;;;;;4.95;3.30;;;3.10;99.90;;;;;;7362083;19;20539;-46
2022/12/08 11:31:38;;;;;;;5.47;3.25;;;3.10;99.90;;;;;;7353981;19;20023;-45
2022/12/08 11:34:05;;;;;;;9.10;2.90;;;3.20;99.90;;;;;;7361714;19;20018;-43
2022/12/08 11:36:34;;;;;;;4.65;2.95;;;3.40;99.90;;;;;;7358234;19;20600;-43
2022/12/08 11:39:03;;;;;;;6.55;2.80;;;3.70;99.90;;;;;;7358354;19;20473;-45
2022/12/08 11:41:36;;;;;;;4.68;2.72;;;3.90;99.90;;;;;;7354440;19;20014;-45
2022/12/08 11:44:30;;;;;;;6.72;3.00;;;3.90;99.90;;;;;;7354647;19;20371;-45
2022/12/08 11:47:14;;;;;;;4.65;2.40;;;3.90;99.90;;;;;;7360459;19;20026;-47
2022/12/08 11:49:42;;;;;;;3.55;2.45;;;4.00;99.90;;;;;;7353833;19;20022;-43
2022/12/08 11:52:28;;;;;;;3.45;2.22;;;4.00;99.90;;;;;;7356777;19;20561;-45
2022/12/08 11:55:12;;;;;;;5.13;2.90;;;4.20;99.90;;;;;;7356613;19;20022;-43
2022/12/08 11:57:40;;;;;;;5.93;3.08;;;4.50;99.90;;;;;;7356700;19;20014;-43
2022/12/08 12:00:12;;;;;;;7.03;2.08;;;4.70;99.90;;;;;;7355258;19;20044;-43
2022/12/08 12:02:58;;;;;;;5.28;2.30;;;4.80;99.90;;;;;;7357616;19;20026;-43
2022/12/08 12:05:44;;;;;;;4.88;2.08;;;5.40;99.90;;;;;;7355773;19;20338;-43
2022/12/08 12:08:40;;;;;;;3.75;1.77;;;6.00;99.90;;;;;;7358026;19;20022;-45
2022/12/08 12:12:11;;;;;;;4.13;1.63;;;6.70;99.90;;;;;;7365615;19;20022;-44
2022/12/08 12:14:25;;;;;;;3.80;1.95;;;7.50;99.90;;;;;;7360814;19;20030;-43
2022/12/08 12:17:02;;;;;;;3.03;1.70;;;7.80;99.90;;;;;;7366359;19;20019;-43
2022/12/08 12:19:33;;;;;;;2.47;1.50;;;8.50;99.90;;;;;;7363788;19;20393;-46
2022/12/08 12:22:16;;;;;;;3.93;1.60;;;8.90;99.90;;;;;;7373974;19;20019;-44
2022/12/08 12:24:46;;;;;;;5.05;2.00;;;9.80;99.90;;;;;;7369356;19;20251;-43
2022/12/08 12:27:12;;;;;;;3.88;1.75;;;9.80;99.90;;;;;;7369925;19;20058;-44
2022/12/08 12:29:54;;;;;;;4.38;2.00;;;9.90;99.90;;;;;;7370719;19;20025;-46
2022/12/08 12:32:21;;;;;;;4.43;1.65;;;9.70;99.90;;;;;;7356612;19;20502;-46
2022/12/08 12:34:55;;;;;;;3.78;1.83;;;8.60;99.90;;;;;;7366772;19;20023;-49
2022/12/08 12:37:37;;;;;;;5.38;1.75;;;8.10;99.90;;;;;;7365408;19;20520;-48
2022/12/08 12:40:22;;;;;;;5.13;2.08;;;7.90;99.90;;;;;;7366934;19;20581;-46
2022/12/08 12:43:13;;;;;;;4.18;2.15;;;7.90;99.90;;;;;;7358477;19;20486;-44
2022/12/08 12:45:42;;;;;;;5.40;2.30;;;7.60;99.90;;;;;;7357760;19;20497;-47
2022/12/08 12:48:08;;;;;;;10.57;3.35;;;7.30;99.90;;;;;;7359795;19;20499;-46
2022/12/08 12:50:47;;;;;;;4.55;2.40;;;6.80;99.90;;;;;;7360261;19;20015;-44
2022/12/08 12:53:17;;;;;;;3.10;1.98;;;6.40;99.90;;;;;;7362898;19;20021;-44
2022/12/08 12:55:52;;;;;;;4.90;2.28;;;5.80;99.90;;;;;;7358261;19;20453;-43
2022/12/08 12:58:35;;;;;;;4.47;2.50;;;5.60;99.90;;;;;;7363562;19;20660;-48
2022/12/08 13:01:20;;;;;;;6.73;2.17;;;5.40;99.90;;;;;;7360673;19;21231;-45
2022/12/08 13:03:50;;;;;;;4.97;2.38;;;5.10;99.90;;;;;;7356808;19;20010;-47
2022/12/08 13:06:32;;;;;;;10.38;2.50;;;5.00;99.90;;;;;;7359532;19;20022;-43
2022/12/08 13:08:59;;;;;;;6.07;3.17;;;5.00;99.90;;;;;;7359343;19;20029;-46
2022/12/08 13:11:25;;;;;;;4.50;2.03;;;5.10;99.90;;;;;;7361999;19;20022;-46
2022/12/08 13:13:56;;;;;;;6.32;2.58;;;5.20;99.90;;;;;;7350567;19;20029;-43
2022/12/08 13:16:30;;;;;;;5.75;2.13;;;5.20;99.90;;;;;;7353759;19;20330;-44
2022/12/08 13:19:01;;;;;;;6.72;2.70;;;5.40;99.90;;;;;;7350850;19;20027;-44
2022/12/08 13:21:38;;;;;;;4.03;2.97;;;5.40;99.90;;;;;;7359362;19;20022;-45
2022/12/08 13:24:16;;;;;;;5.55;2.17;;;5.40;99.90;;;;;;7357443;19;20549;-45